Latest Weather Observations for Albury

IDV60801

Issued at 10:31 pm EST Wednesday 1 July 2015 (issued every 30 minutes, with the page automatically refreshed every 10 minutes)

About weather observations | Map of weather stations | Latest weather observations for VIC | Other Formats
Station Details ID: 072160 Name: ALBURY AIRPORT AWS Lat: -36.07 Lon: 146.95 Height: 163.5 m
Data from the previous 72 hours. | See also: Recent months at Albury
Date/Time
EST
Temp
°C
App
Temp
°C
Dew
Point
Rel
Hum
%
Delta-T
°C
Wind Press
QNH
hPa
Press
MSL
hPa
Rain
since 9 am
mm
Dir
 
Spd
km/h
Gust
km/h
Spd
kts
Gust
kts
01/10:30pm 4.9 3.5 3.4 90 0.6 CALM 0 0 0 0 1025.3 1025.7 -
01/10:00pm 5.6 3.9 3.9 89 0.7 ENE 2 6 1 3 1025.5 1025.9 -
01/09:30pm 6.5 4.1 4.2 85 1.0 ESE 6 7 3 4 1025.5 1025.9 -
01/09:00pm 7.0 4.4 4.0 81 1.3 NE 7 7 4 4 1025.7 1026.1 0.0
01/08:30pm 8.0 5.7 4.6 79 1.5 NNW 6 9 3 5 1026.0 1026.4 -
01/08:00pm 8.0 5.7 4.6 79 1.5 N 6 7 3 4 1026.1 1026.5 -
01/07:30pm 8.2 5.6 4.4 77 1.7 NNW 7 9 4 5 1026.0 1026.4 -
01/07:00pm 8.5 7.2 3.9 73 2.0 CALM 0 2 0 1 1025.6 1026.0 -
01/06:30pm 8.4 5.7 3.7 72 2.0 WSW 7 9 4 5 1025.8 1026.2 -
01/06:00pm 8.7 5.6 3.5 70 2.2 W 9 13 5 7 1025.8 1026.2 -
01/05:30pm 9.1 6.0 3.7 69 2.4 WNW 9 13 5 7 1025.8 1026.2 -
01/05:00pm 9.3 6.2 3.7 68 2.4 WNW 9 15 5 8 1025.6 1026.0 -
01/04:30pm 9.7 5.9 3.9 67 2.6 WNW 13 17 7 9 1025.9 1026.3 -
01/04:00pm 9.9 6.6 4.3 68 2.5 WNW 11 15 6 8 1025.8 1026.2 -
01/03:30pm 10.3 7.4 4.5 67 2.6 WNW 9 15 5 8 1026.0 1026.4 -
01/03:03pm 9.8 7.2 4.2 68 2.5 NNW 7 11 4 6 1025.6 1026.0 -
01/03:00pm 10.1 7.7 4.5 68 2.5 NNW 6 11 3 6 1025.7 1026.1 0.6
01/02:45pm 10.5 7.6 4.9 68 2.6 NNW 9 15 5 8 1025.7 1026.1 -
01/02:44pm 10.3 7.4 4.7 68 2.5 NNW 9 15 5 8 1025.7 1026.1 -
01/02:30pm 9.7 6.7 4.3 69 2.4 NNW 9 15 5 8 1026.0 1026.4 -
01/02:00pm 9.5 6.9 4.3 70 2.3 W 7 11 4 6 1026.4 1026.8 -
01/01:30pm 9.3 7.3 4.3 71 2.2 WSW 4 7 2 4 1026.8 1027.2 -
01/01:20pm 8.6 5.9 3.6 71 2.2 W 7 13 4 7 1026.9 1027.3 -
01/01:00pm 8.6 6.1 4.8 77 1.7 WSW 7 11 4 6 1027.1 1027.5 -
01/12:30pm 8.0 4.2 3.8 75 1.8 WSW 13 17 7 9 1027.8 1028.2 -
01/12:00pm 7.9 4.8 3.6 74 1.8 WSW 9 11 5 6 1028.4 1028.8 -
01/11:30am 8.4 4.4 2.8 68 2.4 WSW 13 19 7 10 1029.3 1029.6 0.6
01/11:19am 8.5 5.0 1.0 59 3.1 WSW 9 17 5 9 1029.4 1029.7 0.6
01/11:00am 8.0 4.7 4.4 78 1.6 W 11 15 6 8 1029.6 1030.0 0.0
01/09:30am 5.9 4.8 5.3 96 0.3 CALM 0 2 0 1 1029.4 1029.7 0.0
01/09:00am 5.3 3.1 5.2 99 0.0 ENE 6 7 3 4 1029.2 1029.5 0.0
01/08:30am 4.8 3.6 4.7 99 0.0 CALM 0 0 0 0 1029.2 1029.5 0.0
01/08:04am 4.3 3.0 4.2 99 0.0 CALM 0 0 0 0 1029.0 1029.3 0.0
01/08:00am 4.2 2.9 4.1 99 0.0 CALM 0 0 0 0 1029.0 1029.3 0.0
01/07:30am 3.6 1.7 3.0 96 0.2 E 2 6 1 3 1028.8 1029.1 0.0
01/07:00am 4.6 2.0 4.2 97 0.2 ENE 7 9 4 5 1028.4 1028.8 0.0
01/06:30am 4.8 2.4 4.5 98 0.1 NE 6 6 3 3 1028.3 1028.7 0.0
01/06:00am 4.9 2.6 4.6 98 0.1 NE 6 7 3 4 1028.1 1028.5 0.0
01/05:30am 5.0 2.7 4.9 99 0.0 NE 6 7 3 4 1027.8 1028.2 0.0
01/05:00am 5.1 2.8 5.0 99 0.0 NNE 6 7 3 4 1027.8 1028.2 0.0
01/04:56am 5.0 2.7 4.9 99 0.0 NNE 6 7 3 4 1027.8 1028.2 0.0
01/04:30am 5.1 4.0 5.0 99 0.0 CALM 0 0 0 0 1027.8 1028.2 0.0
01/04:00am 4.8 3.6 4.7 99 0.0 CALM 0 0 0 0 1028.0 1028.4 0.0
01/03:30am 4.9 3.7 4.8 99 0.0 CALM 0 0 0 0 1028.1 1028.5 0.0
01/03:00am 4.7 3.5 4.6 99 0.0 CALM 0 0 0 0 1028.1 1028.5 0.0
01/02:31am 4.6 3.4 4.5 99 0.0 CALM 0 0 0 0 1028.3 1028.7 0.0
01/02:30am 4.6 3.4 4.5 99 0.0 CALM 0 0 0 0 1028.3 1028.7 0.0
01/02:08am 4.4 2.0 4.3 99 0.0 NNE 6 6 3 3 1028.6 1028.9 0.0
01/02:00am 4.3 2.6 4.2 99 0.0 ENE 2 6 1 3 1028.6 1028.9 0.0
01/01:45am 4.1 2.0 4.0 99 0.0 ENE 4 7 2 4 1028.4 1028.8 0.0
01/01:30am 4.2 2.9 4.1 99 0.0 CALM 0 0 0 0 1028.6 1028.9 0.0
01/01:03am 3.6 2.2 3.5 99 0.0 CALM 0 0 0 0 1028.7 1029.0 0.0
01/01:01am 3.7 2.3 3.6 99 0.0 CALM 0 0 0 0 1028.7 1029.0 0.0
01/01:00am 3.7 2.3 3.6 99 0.0 CALM 0 0 0 0 1028.7 1029.0 0.0
01/12:35am 3.6 2.2 3.5 99 0.0 CALM 0 0 0 0 1028.8 1029.1 0.0
01/12:30am 3.6 2.2 3.5 99 0.0 CALM 0 0 0 0 1028.8 1029.1 0.0
01/12:20am 3.5 2.1 3.4 99 0.0 CALM 0 4 0 2 1028.8 1029.1 0.0
01/12:00am 3.1 1.6 3.0 99 0.0 CALM 0 6 0 3 1028.9 1029.2 0.0
 
Date/Time
EST
Temp
°C
App
Temp
°C
Dew
Point
Rel
Hum
%
Delta-T
°C
Wind Press
QNH
hPa
Press
MSL
hPa
Rain
since 9 am
mm
Dir
 
Spd
km/h
Gust
km/h
Spd
kts
Gust
kts
30/11:30pm 3.1 0.5 3.0 99 0.0 ENE 6 7 3 4 1029.0 1029.3 0.0
30/11:10pm 3.6 1.4 3.3 98 0.1 ENE 4 7 2 4 1028.9 1029.2 0.0
30/11:00pm 3.4 1.1 3.0 97 0.2 NE 4 7 2 4 1029.0 1029.3 0.0
30/10:35pm 4.4 3.1 4.1 98 0.1 CALM 0 0 0 0 1029.0 1029.3 0.0
30/10:30pm 4.3 3.0 4.0 98 0.1 CALM 0 0 0 0 1029.0 1029.3 0.0
30/10:04pm 4.6 3.3 4.3 98 0.1 CALM 0 0 0 0 1029.2 1029.5 0.0
30/10:00pm 4.5 3.2 4.2 98 0.1 CALM 0 0 0 0 1029.3 1029.6 0.0
30/09:58pm 4.5 3.2 4.2 98 0.1 CALM 0 0 0 0 1029.3 1029.6 0.0
30/09:45pm 4.5 3.3 4.4 99 0.0 CALM 0 0 0 0 1029.3 1029.6 0.0
30/09:30pm 4.3 3.0 4.0 98 0.1 CALM 0 4 0 2 1029.2 1029.5 0.0
30/09:00pm 4.5 3.2 4.2 98 0.1 CALM 0 6 0 3 1029.3 1029.6 0.0
30/08:30pm 4.1 1.6 3.7 97 0.2 NNE 6 7 3 4 1029.1 1029.4 0.0
30/08:13pm 4.3 1.8 3.9 97 0.2 NNE 6 7 3 4 1029.1 1029.4 0.0
30/08:00pm 4.8 2.4 4.4 97 0.2 ENE 6 7 3 4 1029.1 1029.4 0.0
30/07:30pm 5.0 2.4 4.3 95 0.3 N 7 9 4 5 1028.9 1029.2 0.0
30/07:00pm 6.0 4.5 5.1 94 0.4 SSE 2 6 1 3 1028.6 1028.9 0.0
30/06:30pm 6.4 4.1 5.0 91 0.6 SE 6 9 3 5 1028.4 1028.8 0.0
30/06:00pm 7.3 5.9 5.3 87 0.9 NNE 2 9 1 5 1028.2 1028.6 0.0
30/05:30pm 7.6 5.4 5.2 85 1.1 NW 6 9 3 5 1028.1 1028.5 0.0
30/05:00pm 7.9 5.2 5.4 84 1.1 WNW 9 13 5 7 1028.1 1028.5 0.0
30/04:30pm 8.1 5.7 5.4 83 1.2 WNW 7 9 4 5 1027.9 1028.3 0.0
30/04:00pm 8.3 6.0 5.8 84 1.1 W 7 11 4 6 1027.7 1028.1 0.0
30/03:30pm 8.3 7.3 5.6 83 1.2 CALM 0 6 0 3 1027.6 1028.0 0.0
30/03:22pm 8.3 6.5 5.6 83 1.2 SW 4 7 2 4 1027.7 1028.1 0.0
30/03:00pm 8.2 5.9 5.8 85 1.1 WSW 7 11 4 6 1027.6 1028.0 0.0
30/02:30pm 8.4 5.7 5.5 82 1.3 NNW 9 13 5 7 1027.5 1027.9 0.0
30/02:00pm 8.1 6.4 5.7 85 1.1 SW 4 7 2 4 1027.5 1027.9 0.0
30/01:30pm 7.8 4.8 5.8 87 0.9 WSW 11 15 6 8 1027.6 1028.0 0.0
30/01:00pm 8.0 5.8 6.0 87 0.9 S 7 9 4 5 1027.7 1028.1 0.0
30/12:30pm 7.7 5.6 6.0 89 0.8 SE 6 7 3 4 1028.3 1028.7 0.0
30/12:00pm 7.5 5.5 6.1 91 0.6 S 6 7 3 4 1028.8 1029.1 0.0
30/11:30am 7.1 6.3 6.4 95 0.3 CALM 0 6 0 3 1029.3 1029.6 0.0
30/11:00am 6.8 5.2 6.4 97 0.2 S 4 7 2 4 1029.6 1029.9 0.0
30/10:30am 6.3 4.6 6.0 98 0.1 SSE 4 7 2 4 1029.8 1030.1 0.0
30/10:00am 5.9 3.8 5.6 98 0.1 SSE 6 6 3 3 1029.7 1030.0 0.0
30/09:30am 5.5 3.3 5.4 99 0.0 E 6 7 3 4 1029.5 1029.8 0.0
30/09:00am 5.0 2.1 4.9 99 0.0 ESE 9 11 5 6 1029.4 1029.7 0.0
30/08:30am 4.0 1.3 3.9 99 0.0 SSE 7 9 4 5 1029.3 1029.6 0.0
30/08:00am 3.1 1.6 3.0 99 0.0 CALM 0 0 0 0 1029.1 1029.4 0.0
30/07:50am 2.8 1.2 2.7 99 0.0 CALM 0 0 0 0 1029.1 1029.4 0.0
30/07:30am 3.0 1.5 2.9 99 0.0 CALM 0 0 0 0 1029.0 1029.3 0.0
30/07:15am 3.3 1.8 3.2 99 0.0 CALM 0 0 0 0 1028.9 1029.2 0.0
30/07:00am 3.5 2.1 3.4 99 0.0 CALM 0 0 0 0 1028.9 1029.2 0.0
30/06:30am 3.2 1.3 3.1 99 0.0 SE 2 6 1 3 1028.9 1029.2 0.0
30/06:25am 3.1 0.5 3.0 99 0.0 SE 6 9 3 5 1028.8 1029.1 0.0
30/06:00am 2.6 -0.3 2.5 99 0.0 SE 7 7 4 4 1028.8 1029.1 0.0
30/05:30am 1.8 0.1 1.7 99 0.0 CALM 0 0 0 0 1028.6 1028.9 0.0
30/05:00am 1.7 0.0 1.6 99 0.0 CALM 0 6 0 3 1028.3 1028.7 0.0
30/04:30am 1.7 0.0 1.6 99 0.0 CALM 0 0 0 0 1028.2 1028.6 0.0
30/04:28am 1.6 -0.2 1.5 99 0.0 CALM 0 0 0 0 1028.1 1028.5 0.0
30/04:09am 1.5 -0.3 1.4 99 0.0 CALM 0 0 0 0 1028.1 1028.5 0.0
30/04:00am 1.4 -0.4 1.3 99 0.0 CALM 0 0 0 0 1028.1 1028.5 0.0
30/03:30am 1.6 -0.5 1.5 99 0.0 N 2 6 1 3 1028.2 1028.6 0.0
30/03:00am 1.3 -1.8 1.2 99 0.0 N 7 9 4 5 1028.3 1028.7 0.0
30/02:30am 1.4 -1.5 1.3 99 0.0 NNW 6 7 3 4 1028.3 1028.7 0.0
30/02:00am 1.6 -0.2 1.3 98 0.1 CALM 0 6 0 3 1028.3 1028.7 0.0
30/01:30am 2.4 0.4 2.3 99 0.0 NE 2 6 1 3 1028.3 1028.7 0.0
30/01:00am 2.7 1.1 2.6 99 0.0 CALM 0 0 0 0 1028.6 1028.9 0.0
30/12:30am 2.4 0.7 2.1 98 0.1 CALM 0 0 0 0 1028.7 1029.0 0.0
30/12:00am 3.9 2.5 3.8 99 0.0 CALM 0 2 0 1 1029.1 1029.4 0.0
 
Date/Time
EST
Temp
°C
App
Temp
°C
Dew
Point
Rel
Hum
%
Delta-T
°C
Wind Press
QNH
hPa
Press
MSL
hPa
Rain
since 9 am
mm
Dir
 
Spd
km/h
Gust
km/h
Spd
kts
Gust
kts
29/11:30pm 2.8 0.9 2.7 99 0.0 NNW 2 7 1 4 1029.3 1029.6 0.0
29/11:26pm 2.7 1.1 2.6 99 0.0 CALM 0 0 0 0 1029.3 1029.6 0.0
29/11:00pm 2.6 1.0 2.5 99 0.0 CALM 0 0 0 0 1029.4 1029.7 0.0
29/10:30pm 2.9 1.4 2.8 99 0.0 CALM 0 0 0 0 1029.6 1029.9 0.0
29/10:25pm 3.5 2.1 3.4 99 0.0 CALM 0 0 0 0 1029.6 1029.9 0.0
29/10:00pm 3.5 2.1 3.4 99 0.0 CALM 0 0 0 0 1029.7 1030.0 0.0
29/09:30pm 4.3 1.9 4.2 99 0.0 NNW 6 7 3 4 1029.9 1030.2 0.0
29/09:29pm 4.4 2.0 4.3 99 0.0 NNW 6 7 3 4 1029.9 1030.2 0.0
29/09:10pm 2.9 0.0 2.5 97 0.2 S 7 11 4 6 1030.0 1030.3 0.0
29/09:04pm 4.3 2.3 4.2 99 0.0 NNE 4 11 2 6 1029.9 1030.2 0.0
29/09:00pm 4.8 3.6 4.7 99 0.0 CALM 0 6 0 3 1030.0 1030.3 0.0
29/08:35pm 3.8 2.3 3.2 96 0.2 CALM 0 0 0 0 1030.2 1030.5 0.0
29/08:30pm 4.3 3.0 3.9 97 0.2 CALM 0 0 0 0 1030.2 1030.5 0.0
29/08:00pm 5.0 3.8 4.4 96 0.3 CALM 0 0 0 0 1030.2 1030.5 0.0
29/07:30pm 6.0 4.9 5.0 93 0.4 CALM 0 0 0 0 1029.9 1030.2 0.0
29/07:00pm 6.7 5.7 5.5 92 0.5 CALM 0 0 0 0 1030.1 1030.4 0.0
29/06:30pm 7.1 4.9 5.1 87 0.9 N 6 6 3 3 1030.1 1030.4 0.0
29/06:00pm 8.5 7.7 6.3 86 1.0 CALM 0 0 0 0 1029.9 1030.2 0.0
29/05:30pm 9.4 7.5 6.5 82 1.4 E 6 7 3 4 1029.8 1030.1 0.0
29/05:00pm 11.8 10.3 6.7 71 2.4 ESE 4 6 2 3 1029.8 1030.1 0.0
29/04:30pm 13.0 12.0 5.7 61 3.5 CALM 0 0 0 0 1029.8 1030.1 0.0
29/04:00pm 13.6 12.3 6.0 60 3.6 NE 2 7 1 4 1029.9 1030.2 0.0
29/03:30pm 14.8 13.7 7.1 60 3.8 N 2 7 1 4 1029.9 1030.2 0.0
29/03:00pm 12.8 10.9 6.6 66 3.0 SSE 6 9 3 5 1029.8 1030.1 0.0
29/02:30pm 12.4 9.9 6.7 68 2.7 SE 9 11 5 6 1029.8 1030.1 0.0
29/02:00pm 12.0 9.6 6.9 71 2.4 SE 9 11 5 6 1030.2 1030.5 0.0
29/01:30pm 11.7 9.6 6.6 71 2.4 ESE 7 11 4 6 1030.7 1031.0 0.0
29/01:00pm 11.3 9.2 6.6 73 2.2 E 7 11 4 6 1031.0 1031.3 0.0
29/12:30pm 11.0 8.6 6.9 76 2.0 E 9 13 5 7 1031.5 1031.8 0.0
29/12:00pm 10.1 7.6 6.6 79 1.6 E 9 15 5 8 1032.0 1032.3 0.0
29/11:30am 9.2 7.3 6.6 84 1.2 E 6 9 3 5 1032.4 1032.7 0.0
29/11:07am 8.4 6.5 6.9 90 0.7 E 6 9 3 5 1032.9 1033.3 0.0
29/11:00am 7.6 5.4 6.2 91 0.6 ENE 7 9 4 5 1033.0 1033.4 0.0
29/10:30am 6.0 4.2 5.6 97 0.2 NE 4 7 2 4 1033.5 1033.9 0.0
29/10:00am 5.2 3.7 5.1 99 0.0 ESE 2 6 1 3 1033.7 1034.1 0.0
29/09:30am 4.1 1.6 4.0 99 0.0 SE 6 7 3 4 1033.9 1034.3 0.0
29/09:00am 3.3 0.5 3.2 99 0.0 SSE 7 9 4 5 1033.9 1034.3 0.0
29/08:30am 3.3 0.1 3.2 99 0.0 SSE 9 11 5 6 1034.0 1034.4 0.0
29/08:00am 3.6 1.1 3.5 99 0.0 SE 6 7 3 4 1033.9 1034.3 0.0
29/07:30am 3.6 0.9 3.6 100 0.0 SSE 7 9 4 5 1033.7 1034.1 0.0
29/07:00am 3.5 1.0 3.5 100 0.0 SE 6 7 3 4 1033.6 1034.0 0.0
29/06:30am 3.2 1.3 3.1 99 0.0 SSE 2 7 1 4 1033.5 1033.9 0.0
29/06:29am 3.2 1.3 3.1 99 0.0 SSE 2 7 1 4 1033.5 1033.9 0.0
29/06:00am 3.0 1.5 2.9 99 0.0 CALM 0 0 0 0 1033.5 1033.9 0.0
29/05:30am 3.1 1.6 3.0 99 0.0 CALM 0 0 0 0 1033.4 1033.8 0.0
29/05:00am 2.9 0.2 2.8 99 0.0 SSW 6 7 3 4 1033.3 1033.7 0.0
29/04:30am 3.0 0.3 2.9 99 0.0 SSE 6 7 3 4 1033.3 1033.7 0.0
29/04:00am 2.9 1.4 2.8 99 0.0 CALM 0 0 0 0 1033.3 1033.7 0.0
29/03:30am 2.2 0.5 2.1 99 0.0 CALM 0 0 0 0 1033.3 1033.7 0.0
29/03:12am 2.0 0.3 1.9 99 0.0 CALM 0 0 0 0 1033.4 1033.8 0.0
29/03:00am 1.5 -0.3 1.4 99 0.0 CALM 0 0 0 0 1033.5 1033.9 0.0
29/02:34am 0.9 -1.0 0.8 99 0.0 CALM 0 0 0 0 1033.3 1033.7 0.0
29/02:30am 0.7 -1.2 0.6 99 0.0 CALM 0 0 0 0 1033.3 1033.7 0.0
29/02:28am 0.8 -1.1 0.7 99 0.0 CALM 0 0 0 0 1033.3 1033.7 0.0
29/02:16am 0.9 -1.0 0.8 99 0.0 CALM 0 0 0 0 1033.3 1033.7 0.0
29/02:00am 0.4 -1.6 0.1 98 0.1 CALM 0 0 0 0 1033.3 1033.7 0.0
29/01:35am 0.9 -1.0 0.8 99 0.0 CALM 0 0 0 0 1033.2 1033.6 0.0
29/01:30am 1.1 -0.7 1.0 99 0.0 CALM 0 0 0 0 1033.1 1033.5 0.0
29/01:03am 1.0 -0.8 0.9 99 0.0 CALM 0 0 0 0 1033.0 1033.4 0.0
29/01:00am 1.0 -0.8 0.9 99 0.0 CALM 0 0 0 0 1033.0 1033.4 0.0
29/12:50am 1.0 -0.9 0.7 98 0.1 CALM 0 0 0 0 1032.9 1033.3 0.0
29/12:30am 1.1 -0.8 0.8 98 0.1 CALM 0 0 0 0 1032.9 1033.3 0.0
29/12:29am 1.1 -0.8 0.8 98 0.1 CALM 0 0 0 0 1032.9 1033.3 0.0
29/12:00am 1.5 -0.3 1.4 99 0.0 CALM 0 0 0 0 1033.0 1033.4 0.0
 
Date/Time
EST
Temp
°C
App
Temp
°C
Dew
Point
Rel
Hum
%
Delta-T
°C
Wind Press
QNH
hPa
Press
MSL
hPa
Rain
since 9 am
mm
Dir
 
Spd
km/h
Gust
km/h
Spd
kts
Gust
kts
28/11:30pm 1.8 -1.1 1.7 99 0.0 N 6 6 3 3 1033.2 1033.6 0.0
28/11:14pm 2.0 -0.8 1.9 99 0.0 N 6 7 3 4 1033.2 1033.6 0.0
28/11:00pm 2.3 0.7 2.2 99 0.0 CALM 0 0 0 0 1033.3 1033.7 0.0
28/10:49pm 1.9 0.2 1.8 99 0.0 CALM 0 0 0 0 1033.3 1033.7 0.0
28/10:48pm 1.9 0.2 1.8 99 0.0 CALM 0 0 0 0 1033.3 1033.7 0.0

Other Formats:

Comma delimited format used in spreadsheet applications
http://www.bom.gov.au/fwo/IDV60801/IDV60801.95896.axf

JavaScript Object Notation format (JSON) in row-major order
http://www.bom.gov.au/fwo/IDV60801/IDV60801.95896.json